sensor_id;sensor_type;location;lat;lon;timestamp;P1;durP1;ratioP1;P2;durP2;ratioP2
22024;SDS011;11176;51.448;6.650;2023-01-30T00:01:12;43.15;;;25.25;;
22024;SDS011;11176;51.448;6.650;2023-01-30T00:03:44;42.53;;;26.05;;
22024;SDS011;11176;51.448;6.650;2023-01-30T00:06:11;45.03;;;26.05;;
22024;SDS011;11176;51.448;6.650;2023-01-30T00:08:37;47.88;;;25.58;;
22024;SDS011;11176;51.448;6.650;2023-01-30T00:11:04;42.78;;;24.40;;
22024;SDS011;11176;51.448;6.650;2023-01-30T00:13:35;41.60;;;25.02;;
22024;SDS011;11176;51.448;6.650;2023-01-30T00:16:02;43.53;;;26.42;;
22024;SDS011;11176;51.448;6.650;2023-01-30T00:18:29;43.88;;;26.33;;
22024;SDS011;11176;51.448;6.650;2023-01-30T00:20:56;40.13;;;24.10;;
22024;SDS011;11176;51.448;6.650;2023-01-30T00:23:24;43.60;;;25.25;;
22024;SDS011;11176;51.448;6.650;2023-01-30T00:25:51;38.42;;;24.17;;
22024;SDS011;11176;51.448;6.650;2023-01-30T00:28:18;41.80;;;26.40;;
22024;SDS011;11176;51.448;6.650;2023-01-30T00:30:49;45.47;;;25.48;;
22024;SDS011;11176;51.448;6.650;2023-01-30T00:33:16;44.30;;;25.42;;
22024;SDS011;11176;51.448;6.650;2023-01-30T00:35:43;41.78;;;24.40;;
22024;SDS011;11176;51.448;6.650;2023-01-30T00:38:12;40.67;;;25.05;;
22024;SDS011;11176;51.448;6.650;2023-01-30T00:40:40;40.95;;;24.33;;
22024;SDS011;11176;51.448;6.650;2023-01-30T00:43:08;42.42;;;25.27;;
22024;SDS011;11176;51.448;6.650;2023-01-30T00:45:55;43.45;;;25.13;;
22024;SDS011;11176;51.448;6.650;2023-01-30T00:48:41;44.65;;;26.70;;
22024;SDS011;11176;51.448;6.650;2023-01-30T00:51:07;42.40;;;25.45;;
22024;SDS011;11176;51.448;6.650;2023-01-30T00:53:34;43.28;;;25.85;;
22024;SDS011;11176;51.448;6.650;2023-01-30T00:56:00;47.15;;;26.70;;
22024;SDS011;11176;51.448;6.650;2023-01-30T00:58:27;41.05;;;25.10;;
22024;SDS011;11176;51.448;6.650;2023-01-30T01:00:54;47.53;;;27.30;;
22024;SDS011;11176;51.448;6.650;2023-01-30T01:03:21;43.92;;;26.52;;
22024;SDS011;11176;51.448;6.650;2023-01-30T01:05:48;43.50;;;25.70;;
22024;SDS011;11176;51.448;6.650;2023-01-30T01:08:14;45.22;;;27.45;;
22024;SDS011;11176;51.448;6.650;2023-01-30T01:10:41;44.28;;;26.70;;
22024;SDS011;11176;51.448;6.650;2023-01-30T01:13:07;46.13;;;27.05;;
22024;SDS011;11176;51.448;6.650;2023-01-30T01:15:36;42.88;;;26.08;;
22024;SDS011;11176;51.448;6.650;2023-01-30T01:18:03;44.63;;;25.73;;
22024;SDS011;11176;51.448;6.650;2023-01-30T01:20:30;43.15;;;26.35;;
22024;SDS011;11176;51.448;6.650;2023-01-30T01:22:56;45.55;;;27.02;;
22024;SDS011;11176;51.448;6.650;2023-01-30T01:25:24;47.63;;;27.65;;
22024;SDS011;11176;51.448;6.650;2023-01-30T01:27:51;42.17;;;26.50;;
22024;SDS011;11176;51.448;6.650;2023-01-30T01:30:19;43.80;;;26.10;;
22024;SDS011;11176;51.448;6.650;2023-01-30T01:32:46;38.90;;;25.38;;
22024;SDS011;11176;51.448;6.650;2023-01-30T01:35:12;41.28;;;26.33;;
22024;SDS011;11176;51.448;6.650;2023-01-30T01:37:39;44.08;;;25.33;;
22024;SDS011;11176;51.448;6.650;2023-01-30T01:40:06;39.90;;;25.48;;
22024;SDS011;11176;51.448;6.650;2023-01-30T01:42:51;42.53;;;26.25;;
22024;SDS011;11176;51.448;6.650;2023-01-30T01:45:19;45.10;;;25.60;;
22024;SDS011;11176;51.448;6.650;2023-01-30T01:50:37;39.67;;;24.90;;
22024;SDS011;11176;51.448;6.650;2023-01-30T01:53:11;38.83;;;25.08;;
22024;SDS011;11176;51.448;6.650;2023-01-30T01:55:40;40.10;;;25.05;;
22024;SDS011;11176;51.448;6.650;2023-01-30T01:58:10;39.03;;;25.35;;
22024;SDS011;11176;51.448;6.650;2023-01-30T02:00:49;37.83;;;24.10;;
22024;SDS011;11176;51.448;6.650;2023-01-30T02:03:18;36.92;;;23.15;;
22024;SDS011;11176;51.448;6.650;2023-01-30T02:05:49;38.20;;;24.42;;
22024;SDS011;11176;51.448;6.650;2023-01-30T02:08:22;37.70;;;24.23;;
22024;SDS011;11176;51.448;6.650;2023-01-30T02:10:57;38.10;;;23.83;;
22024;SDS011;11176;51.448;6.650;2023-01-30T02:13:44;36.50;;;22.90;;
22024;SDS011;11176;51.448;6.650;2023-01-30T02:16:12;38.20;;;24.20;;
22024;SDS011;11176;51.448;6.650;2023-01-30T02:18:39;42.60;;;23.20;;
22024;SDS011;11176;51.448;6.650;2023-01-30T02:26:52;35.03;;;22.10;;
22024;SDS011;11176;51.448;6.650;2023-01-30T02:35:27;37.47;;;23.02;;
22024;SDS011;11176;51.448;6.650;2023-01-30T02:38:12;38.47;;;22.48;;
22024;SDS011;11176;51.448;6.650;2023-01-30T02:43:49;36.90;;;23.17;;
22024;SDS011;11176;51.448;6.650;2023-01-30T02:46:21;38.70;;;22.00;;
22024;SDS011;11176;51.448;6.650;2023-01-30T02:48:53;38.60;;;22.80;;
22024;SDS011;11176;51.448;6.650;2023-01-30T02:51:31;36.92;;;22.70;;
22024;SDS011;11176;51.448;6.650;2023-01-30T02:54:01;35.83;;;23.23;;
22024;SDS011;11176;51.448;6.650;2023-01-30T02:56:27;41.78;;;23.88;;
22024;SDS011;11176;51.448;6.650;2023-01-30T02:58:55;34.80;;;22.35;;
22024;SDS011;11176;51.448;6.650;2023-01-30T03:17:58;39.72;;;22.80;;
22024;SDS011;11176;51.448;6.650;2023-01-30T03:20:26;38.80;;;23.30;;
22024;SDS011;11176;51.448;6.650;2023-01-30T03:22:52;39.47;;;23.23;;
22024;SDS011;11176;51.448;6.650;2023-01-30T03:25:21;41.88;;;23.88;;
22024;SDS011;11176;51.448;6.650;2023-01-30T03:27:52;36.65;;;24.27;;
22024;SDS011;11176;51.448;6.650;2023-01-30T03:30:22;37.85;;;23.67;;
22024;SDS011;11176;51.448;6.650;2023-01-30T03:32:58;35.10;;;22.23;;
22024;SDS011;11176;51.448;6.650;2023-01-30T03:35:25;41.38;;;25.52;;
22024;SDS011;11176;51.448;6.650;2023-01-30T03:37:52;40.88;;;23.40;;
22024;SDS011;11176;51.448;6.650;2023-01-30T03:40:18;43.42;;;24.77;;
22024;SDS011;11176;51.448;6.650;2023-01-30T03:42:45;37.72;;;24.27;;
22024;SDS011;11176;51.448;6.650;2023-01-30T03:45:13;37.70;;;23.45;;
22024;SDS011;11176;51.448;6.650;2023-01-30T03:47:41;40.00;;;23.83;;
22024;SDS011;11176;51.448;6.650;2023-01-30T03:50:08;44.28;;;24.55;;
22024;SDS011;11176;51.448;6.650;2023-01-30T03:52:35;37.40;;;23.55;;
22024;SDS011;11176;51.448;6.650;2023-01-30T03:55:06;41.40;;;22.83;;
22024;SDS011;11176;51.448;6.650;2023-01-30T03:57:33;42.10;;;23.92;;
22024;SDS011;11176;51.448;6.650;2023-01-30T03:59:59;43.90;;;25.05;;
22024;SDS011;11176;51.448;6.650;2023-01-30T04:02:26;40.22;;;23.92;;
22024;SDS011;11176;51.448;6.650;2023-01-30T04:04:54;41.67;;;23.85;;
22024;SDS011;11176;51.448;6.650;2023-01-30T04:07:21;46.38;;;25.92;;
22024;SDS011;11176;51.448;6.650;2023-01-30T04:09:50;40.70;;;24.65;;
22024;SDS011;11176;51.448;6.650;2023-01-30T04:12:18;40.33;;;24.42;;
22024;SDS011;11176;51.448;6.650;2023-01-30T04:14:52;48.17;;;25.45;;
22024;SDS011;11176;51.448;6.650;2023-01-30T04:17:38;45.67;;;24.58;;
22024;SDS011;11176;51.448;6.650;2023-01-30T04:20:22;40.95;;;24.52;;
22024;SDS011;11176;51.448;6.650;2023-01-30T04:22:53;49.85;;;24.52;;
22024;SDS011;11176;51.448;6.650;2023-01-30T04:25:22;37.17;;;23.52;;
22024;SDS011;11176;51.448;6.650;2023-01-30T04:27:49;39.08;;;24.27;;
22024;SDS011;11176;51.448;6.650;2023-01-30T04:30:19;39.00;;;25.08;;
22024;SDS011;11176;51.448;6.650;2023-01-30T04:32:48;40.97;;;25.33;;
22024;SDS011;11176;51.448;6.650;2023-01-30T04:35:14;39.85;;;24.20;;
22024;SDS011;11176;51.448;6.650;2023-01-30T04:37:42;40.22;;;23.27;;
22024;SDS011;11176;51.448;6.650;2023-01-30T04:40:11;45.17;;;24.85;;
22024;SDS011;11176;51.448;6.650;2023-01-30T04:42:39;42.58;;;24.58;;
22024;SDS011;11176;51.448;6.650;2023-01-30T04:45:24;41.50;;;24.50;;
22024;SDS011;11176;51.448;6.650;2023-01-30T04:47:51;39.45;;;25.00;;
22024;SDS011;11176;51.448;6.650;2023-01-30T04:50:17;43.65;;;24.90;;
22024;SDS011;11176;51.448;6.650;2023-01-30T04:52:45;38.45;;;23.75;;
22024;SDS011;11176;51.448;6.650;2023-01-30T04:55:12;42.53;;;25.10;;
22024;SDS011;11176;51.448;6.650;2023-01-30T04:57:38;37.35;;;22.77;;
22024;SDS011;11176;51.448;6.650;2023-01-30T05:00:05;39.28;;;24.33;;
22024;SDS011;11176;51.448;6.650;2023-01-30T05:02:35;39.38;;;23.55;;
22024;SDS011;11176;51.448;6.650;2023-01-30T05:05:02;40.75;;;24.13;;
22024;SDS011;11176;51.448;6.650;2023-01-30T05:07:28;39.47;;;22.65;;
22024;SDS011;11176;51.448;6.650;2023-01-30T05:09:55;37.15;;;24.02;;
22024;SDS011;11176;51.448;6.650;2023-01-30T05:12:21;39.88;;;24.38;;
22024;SDS011;11176;51.448;6.650;2023-01-30T05:14:48;37.05;;;23.23;;
22024;SDS011;11176;51.448;6.650;2023-01-30T05:17:14;38.13;;;23.73;;
22024;SDS011;11176;51.448;6.650;2023-01-30T05:19:41;41.78;;;23.00;;
22024;SDS011;11176;51.448;6.650;2023-01-30T05:22:07;43.17;;;23.40;;
22024;SDS011;11176;51.448;6.650;2023-01-30T05:24:33;39.33;;;23.05;;
22024;SDS011;11176;51.448;6.650;2023-01-30T05:27:00;39.25;;;23.85;;
22024;SDS011;11176;51.448;6.650;2023-01-30T05:29:26;38.35;;;23.27;;
22024;SDS011;11176;51.448;6.650;2023-01-30T05:31:53;40.42;;;24.10;;
22024;SDS011;11176;51.448;6.650;2023-01-30T05:34:19;37.80;;;23.75;;
22024;SDS011;11176;51.448;6.650;2023-01-30T05:36:46;41.95;;;23.55;;
22024;SDS011;11176;51.448;6.650;2023-01-30T05:39:12;37.42;;;23.05;;
22024;SDS011;11176;51.448;6.650;2023-01-30T05:41:39;37.65;;;23.55;;
22024;SDS011;11176;51.448;6.650;2023-01-30T05:44:05;43.78;;;24.98;;
22024;SDS011;11176;51.448;6.650;2023-01-30T05:46:32;40.10;;;23.20;;
22024;SDS011;11176;51.448;6.650;2023-01-30T05:48:58;41.20;;;23.95;;
22024;SDS011;11176;51.448;6.650;2023-01-30T05:51:25;40.03;;;24.40;;
22024;SDS011;11176;51.448;6.650;2023-01-30T05:53:53;40.20;;;24.35;;
22024;SDS011;11176;51.448;6.650;2023-01-30T05:56:20;36.60;;;23.85;;
22024;SDS011;11176;51.448;6.650;2023-01-30T05:58:50;39.72;;;24.08;;
22024;SDS011;11176;51.448;6.650;2023-01-30T06:01:21;38.17;;;24.20;;
22024;SDS011;11176;51.448;6.650;2023-01-30T06:03:48;42.22;;;23.70;;
22024;SDS011;11176;51.448;6.650;2023-01-30T06:06:15;37.00;;;22.77;;
22024;SDS011;11176;51.448;6.650;2023-01-30T06:08:42;41.78;;;22.40;;
22024;SDS011;11176;51.448;6.650;2023-01-30T06:11:10;34.03;;;21.90;;
22024;SDS011;11176;51.448;6.650;2023-01-30T06:13:38;40.78;;;24.00;;
22024;SDS011;11176;51.448;6.650;2023-01-30T06:16:05;39.05;;;24.23;;
22024;SDS011;11176;51.448;6.650;2023-01-30T06:18:33;35.97;;;23.13;;
22024;SDS011;11176;51.448;6.650;2023-01-30T06:21:00;41.40;;;24.33;;
22024;SDS011;11176;51.448;6.650;2023-01-30T06:23:27;35.78;;;22.13;;
22024;SDS011;11176;51.448;6.650;2023-01-30T06:25:53;38.20;;;23.67;;
22024;SDS011;11176;51.448;6.650;2023-01-30T06:28:21;38.10;;;23.25;;
22024;SDS011;11176;51.448;6.650;2023-01-30T06:30:48;37.00;;;22.23;;
22024;SDS011;11176;51.448;6.650;2023-01-30T06:33:15;37.72;;;23.80;;
22024;SDS011;11176;51.448;6.650;2023-01-30T06:35:42;36.80;;;23.25;;
22024;SDS011;11176;51.448;6.650;2023-01-30T06:38:09;35.67;;;22.95;;
22024;SDS011;11176;51.448;6.650;2023-01-30T06:40:39;38.70;;;22.10;;
22024;SDS011;11176;51.448;6.650;2023-01-30T06:43:06;33.28;;;21.55;;
22024;SDS011;11176;51.448;6.650;2023-01-30T06:45:33;34.80;;;21.83;;
22024;SDS011;11176;51.448;6.650;2023-01-30T06:47:59;42.42;;;21.67;;
22024;SDS011;11176;51.448;6.650;2023-01-30T06:50:26;35.85;;;21.63;;
22024;SDS011;11176;51.448;6.650;2023-01-30T06:52:54;34.78;;;21.10;;
22024;SDS011;11176;51.448;6.650;2023-01-30T06:55:24;35.10;;;20.48;;
22024;SDS011;11176;51.448;6.650;2023-01-30T07:00:52;32.90;;;19.73;;
22024;SDS011;11176;51.448;6.650;2023-01-30T07:03:19;29.75;;;19.80;;
22024;SDS011;11176;51.448;6.650;2023-01-30T07:05:46;29.50;;;19.60;;
22024;SDS011;11176;51.448;6.650;2023-01-30T07:08:13;29.63;;;18.92;;
22024;SDS011;11176;51.448;6.650;2023-01-30T07:10:41;29.35;;;18.60;;
22024;SDS011;11176;51.448;6.650;2023-01-30T07:13:08;32.78;;;17.92;;
22024;SDS011;11176;51.448;6.650;2023-01-30T07:15:35;32.47;;;18.63;;
22024;SDS011;11176;51.448;6.650;2023-01-30T07:18:01;31.58;;;19.25;;
22024;SDS011;11176;51.448;6.650;2023-01-30T07:20:28;30.75;;;17.52;;
22024;SDS011;11176;51.448;6.650;2023-01-30T07:22:56;30.95;;;17.48;;
22024;SDS011;11176;51.448;6.650;2023-01-30T07:25:23;27.20;;;16.10;;
22024;SDS011;11176;51.448;6.650;2023-01-30T07:27:55;27.08;;;16.40;;
22024;SDS011;11176;51.448;6.650;2023-01-30T07:30:24;23.92;;;15.35;;
22024;SDS011;11176;51.448;6.650;2023-01-30T07:32:54;28.23;;;16.33;;
22024;SDS011;11176;51.448;6.650;2023-01-30T07:35:26;30.67;;;14.85;;
22024;SDS011;11176;51.448;6.650;2023-01-30T07:37:54;23.55;;;14.32;;
22024;SDS011;11176;51.448;6.650;2023-01-30T07:40:21;22.42;;;13.18;;
22024;SDS011;11176;51.448;6.650;2023-01-30T07:42:58;20.83;;;12.25;;
22024;SDS011;11176;51.448;6.650;2023-01-30T07:45:36;22.60;;;11.90;;
22024;SDS011;11176;51.448;6.650;2023-01-30T07:48:04;19.20;;;11.63;;
22024;SDS011;11176;51.448;6.650;2023-01-30T07:50:31;21.65;;;11.10;;
22024;SDS011;11176;51.448;6.650;2023-01-30T07:52:58;23.42;;;10.90;;
22024;SDS011;11176;51.448;6.650;2023-01-30T07:55:25;19.95;;;10.15;;
22024;SDS011;11176;51.448;6.650;2023-01-30T07:57:52;26.92;;;10.43;;
22024;SDS011;11176;51.448;6.650;2023-01-30T08:00:19;22.08;;;9.65;;
22024;SDS011;11176;51.448;6.650;2023-01-30T08:02:46;18.70;;;8.43;;
22024;SDS011;11176;51.448;6.650;2023-01-30T08:05:13;22.85;;;8.25;;
22024;SDS011;11176;51.448;6.650;2023-01-30T08:07:39;19.67;;;7.82;;
22024;SDS011;11176;51.448;6.650;2023-01-30T08:10:06;18.80;;;7.00;;
22024;SDS011;11176;51.448;6.650;2023-01-30T08:12:36;16.90;;;6.25;;
22024;SDS011;11176;51.448;6.650;2023-01-30T08:15:02;17.58;;;6.20;;
22024;SDS011;11176;51.448;6.650;2023-01-30T08:17:29;15.07;;;5.70;;
22024;SDS011;11176;51.448;6.650;2023-01-30T08:19:56;16.20;;;5.70;;
22024;SDS011;11176;51.448;6.650;2023-01-30T08:22:22;12.88;;;5.03;;
22024;SDS011;11176;51.448;6.650;2023-01-30T08:24:49;13.43;;;5.53;;
22024;SDS011;11176;51.448;6.650;2023-01-30T08:27:15;16.73;;;4.53;;
22024;SDS011;11176;51.448;6.650;2023-01-30T08:29:43;16.27;;;4.00;;
22024;SDS011;11176;51.448;6.650;2023-01-30T08:32:10;12.05;;;3.92;;
22024;SDS011;11176;51.448;6.650;2023-01-30T08:34:37;14.60;;;3.83;;
22024;SDS011;11176;51.448;6.650;2023-01-30T08:37:04;14.27;;;4.50;;
22024;SDS011;11176;51.448;6.650;2023-01-30T08:39:30;14.80;;;4.20;;
22024;SDS011;11176;51.448;6.650;2023-01-30T08:41:57;14.13;;;4.18;;
22024;SDS011;11176;51.448;6.650;2023-01-30T08:44:23;14.23;;;4.18;;
22024;SDS011;11176;51.448;6.650;2023-01-30T08:46:50;19.55;;;4.55;;
22024;SDS011;11176;51.448;6.650;2023-01-30T08:49:16;18.63;;;4.13;;
22024;SDS011;11176;51.448;6.650;2023-01-30T08:51:43;15.63;;;4.00;;
22024;SDS011;11176;51.448;6.650;2023-01-30T08:54:09;15.43;;;4.10;;
22024;SDS011;11176;51.448;6.650;2023-01-30T08:56:36;15.93;;;3.65;;
22024;SDS011;11176;51.448;6.650;2023-01-30T08:59:02;17.20;;;4.10;;
22024;SDS011;11176;51.448;6.650;2023-01-30T09:01:29;16.90;;;3.40;;
22024;SDS011;11176;51.448;6.650;2023-01-30T09:03:56;19.67;;;4.22;;
22024;SDS011;11176;51.448;6.650;2023-01-30T09:06:22;17.27;;;4.13;;
22024;SDS011;11176;51.448;6.650;2023-01-30T09:08:51;16.13;;;3.60;;
22024;SDS011;11176;51.448;6.650;2023-01-30T09:11:17;14.65;;;3.88;;
22024;SDS011;11176;51.448;6.650;2023-01-30T09:13:44;18.55;;;3.92;;
22024;SDS011;11176;51.448;6.650;2023-01-30T09:16:13;15.60;;;4.00;;
22024;SDS011;11176;51.448;6.650;2023-01-30T09:18:41;16.63;;;3.92;;
22024;SDS011;11176;51.448;6.650;2023-01-30T09:21:08;18.52;;;4.05;;
22024;SDS011;11176;51.448;6.650;2023-01-30T09:23:36;17.75;;;4.38;;
22024;SDS011;11176;51.448;6.650;2023-01-30T09:26:03;17.30;;;3.50;;
22024;SDS011;11176;51.448;6.650;2023-01-30T09:28:30;18.30;;;4.20;;
22024;SDS011;11176;51.448;6.650;2023-01-30T09:30:58;15.68;;;3.42;;
22024;SDS011;11176;51.448;6.650;2023-01-30T09:33:25;16.52;;;4.22;;
22024;SDS011;11176;51.448;6.650;2023-01-30T09:35:52;19.63;;;3.90;;
22024;SDS011;11176;51.448;6.650;2023-01-30T09:38:19;14.77;;;3.83;;
22024;SDS011;11176;51.448;6.650;2023-01-30T09:40:53;20.13;;;4.28;;
22024;SDS011;11176;51.448;6.650;2023-01-30T09:51:52;17.40;;;4.20;;
22024;SDS011;11176;51.448;6.650;2023-01-30T09:54:32;30.65;;;5.03;;
22024;SDS011;11176;51.448;6.650;2023-01-30T09:59:53;21.73;;;4.22;;
22024;SDS011;11176;51.448;6.650;2023-01-30T10:02:26;20.17;;;4.22;;
22024;SDS011;11176;51.448;6.650;2023-01-30T10:05:06;16.13;;;4.28;;
22024;SDS011;11176;51.448;6.650;2023-01-30T10:10:33;20.10;;;3.92;;
22024;SDS011;11176;51.448;6.650;2023-01-30T10:16:32;19.52;;;3.97;;
22024;SDS011;11176;51.448;6.650;2023-01-30T10:19:19;19.75;;;3.55;;
22024;SDS011;11176;51.448;6.650;2023-01-30T10:22:17;17.40;;;3.90;;
22024;SDS011;11176;51.448;6.650;2023-01-30T10:24:53;14.73;;;3.22;;
22024;SDS011;11176;51.448;6.650;2023-01-30T10:27:31;14.07;;;4.07;;
22024;SDS011;11176;51.448;6.650;2023-01-30T10:30:01;16.70;;;3.53;;
22024;SDS011;11176;51.448;6.650;2023-01-30T10:32:32;23.40;;;4.30;;
22024;SDS011;11176;51.448;6.650;2023-01-30T10:35:05;22.15;;;3.85;;
22024;SDS011;11176;51.448;6.650;2023-01-30T10:40:43;19.40;;;3.65;;
22024;SDS011;11176;51.448;6.650;2023-01-30T10:43:28;19.38;;;3.58;;
22024;SDS011;11176;51.448;6.650;2023-01-30T10:46:30;23.85;;;4.20;;
22024;SDS011;11176;51.448;6.650;2023-01-30T10:49:12;21.27;;;4.85;;
22024;SDS011;11176;51.448;6.650;2023-01-30T10:51:50;23.80;;;4.43;;
22024;SDS011;11176;51.448;6.650;2023-01-30T10:54:28;15.45;;;3.33;;
22024;SDS011;11176;51.448;6.650;2023-01-30T11:00:26;15.85;;;3.70;;
22024;SDS011;11176;51.448;6.650;2023-01-30T11:05:48;18.77;;;3.85;;
22024;SDS011;11176;51.448;6.650;2023-01-30T11:08:31;13.40;;;3.70;;
22024;SDS011;11176;51.448;6.650;2023-01-30T11:10:59;17.80;;;3.63;;
22024;SDS011;11176;51.448;6.650;2023-01-30T11:15:56;12.57;;;3.47;;
22024;SDS011;11176;51.448;6.650;2023-01-30T11:18:25;19.23;;;4.15;;
22024;SDS011;11176;51.448;6.650;2023-01-30T11:21:18;20.00;;;4.07;;
22024;SDS011;11176;51.448;6.650;2023-01-30T11:23:57;21.50;;;4.20;;
22024;SDS011;11176;51.448;6.650;2023-01-30T11:26:32;18.73;;;3.80;;
22024;SDS011;11176;51.448;6.650;2023-01-30T11:29:22;12.65;;;2.92;;
22024;SDS011;11176;51.448;6.650;2023-01-30T11:31:49;14.98;;;3.45;;
22024;SDS011;11176;51.448;6.650;2023-01-30T11:34:19;17.45;;;3.65;;
22024;SDS011;11176;51.448;6.650;2023-01-30T11:36:47;16.50;;;3.50;;
22024;SDS011;11176;51.448;6.650;2023-01-30T11:44:33;16.60;;;3.83;;
22024;SDS011;11176;51.448;6.650;2023-01-30T11:47:08;14.93;;;3.35;;
22024;SDS011;11176;51.448;6.650;2023-01-30T11:49:44;19.65;;;4.10;;
22024;SDS011;11176;51.448;6.650;2023-01-30T11:52:37;19.85;;;3.60;;
22024;SDS011;11176;51.448;6.650;2023-01-30T11:55:10;15.20;;;3.90;;
22024;SDS011;11176;51.448;6.650;2023-01-30T11:57:40;13.70;;;3.72;;
22024;SDS011;11176;51.448;6.650;2023-01-30T12:00:13;13.48;;;3.63;;
22024;SDS011;11176;51.448;6.650;2023-01-30T12:02:45;14.10;;;3.22;;
22024;SDS011;11176;51.448;6.650;2023-01-30T12:10:46;17.80;;;3.60;;
22024;SDS011;11176;51.448;6.650;2023-01-30T12:13:17;17.80;;;3.35;;
22024;SDS011;11176;51.448;6.650;2023-01-30T12:16:01;20.08;;;4.20;;
22024;SDS011;11176;51.448;6.650;2023-01-30T12:18:40;17.58;;;3.42;;
22024;SDS011;11176;51.448;6.650;2023-01-30T12:21:19;17.38;;;3.88;;
22024;SDS011;11176;51.448;6.650;2023-01-30T12:24:12;13.55;;;3.10;;
22024;SDS011;11176;51.448;6.650;2023-01-30T12:26:57;13.45;;;4.00;;
22024;SDS011;11176;51.448;6.650;2023-01-30T12:32:44;13.50;;;3.67;;
22024;SDS011;11176;51.448;6.650;2023-01-30T12:35:15;19.92;;;4.03;;
22024;SDS011;11176;51.448;6.650;2023-01-30T12:37:50;24.60;;;4.43;;
22024;SDS011;11176;51.448;6.650;2023-01-30T12:43:11;17.70;;;3.40;;
22024;SDS011;11176;51.448;6.650;2023-01-30T12:45:52;19.17;;;3.80;;
22024;SDS011;11176;51.448;6.650;2023-01-30T12:51:43;19.02;;;3.90;;
22024;SDS011;11176;51.448;6.650;2023-01-30T13:00:03;14.05;;;3.70;;
22024;SDS011;11176;51.448;6.650;2023-01-30T13:05:17;19.67;;;4.10;;
22024;SDS011;11176;51.448;6.650;2023-01-30T13:07:55;16.75;;;3.97;;
22024;SDS011;11176;51.448;6.650;2023-01-30T13:10:29;19.92;;;4.25;;
22024;SDS011;11176;51.448;6.650;2023-01-30T13:16:02;12.23;;;3.42;;
22024;SDS011;11176;51.448;6.650;2023-01-30T13:18:54;13.80;;;3.40;;
22024;SDS011;11176;51.448;6.650;2023-01-30T13:24:42;17.15;;;4.32;;
22024;SDS011;11176;51.448;6.650;2023-01-30T13:26:55;19.38;;;4.63;;
22024;SDS011;11176;51.448;6.650;2023-01-30T13:29:29;18.27;;;4.22;;
22024;SDS011;11176;51.448;6.650;2023-01-30T13:32:02;21.05;;;4.05;;
22024;SDS011;11176;51.448;6.650;2023-01-30T13:34:33;20.02;;;4.05;;
22024;SDS011;11176;51.448;6.650;2023-01-30T13:37:11;18.90;;;4.22;;
22024;SDS011;11176;51.448;6.650;2023-01-30T13:45:09;17.45;;;4.20;;
22024;SDS011;11176;51.448;6.650;2023-01-30T13:47:44;22.67;;;4.20;;
22024;SDS011;11176;51.448;6.650;2023-01-30T13:53:02;24.08;;;4.68;;
22024;SDS011;11176;51.448;6.650;2023-01-30T13:55:34;19.35;;;4.05;;
22024;SDS011;11176;51.448;6.650;2023-01-30T14:01:10;24.17;;;4.82;;
22024;SDS011;11176;51.448;6.650;2023-01-30T14:03:38;23.27;;;4.22;;
22024;SDS011;11176;51.448;6.650;2023-01-30T14:08:49;18.17;;;3.80;;
22024;SDS011;11176;51.448;6.650;2023-01-30T14:14:22;22.33;;;4.10;;
22024;SDS011;11176;51.448;6.650;2023-01-30T14:16:52;17.30;;;3.42;;
22024;SDS011;11176;51.448;6.650;2023-01-30T14:22:19;22.70;;;4.28;;
22024;SDS011;11176;51.448;6.650;2023-01-30T14:27:48;24.20;;;4.47;;
22024;SDS011;11176;51.448;6.650;2023-01-30T14:30:51;18.80;;;4.05;;
22024;SDS011;11176;51.448;6.650;2023-01-30T14:36:33;19.65;;;3.90;;
22024;SDS011;11176;51.448;6.650;2023-01-30T14:38:38;13.57;;;3.95;;
22024;SDS011;11176;51.448;6.650;2023-01-30T14:56:43;18.63;;;3.90;;
22024;SDS011;11176;51.448;6.650;2023-01-30T15:04:40;18.17;;;4.00;;
22024;SDS011;11176;51.448;6.650;2023-01-30T15:07:11;22.70;;;4.38;;
22024;SDS011;11176;51.448;6.650;2023-01-30T15:09:38;21.55;;;4.10;;
22024;SDS011;11176;51.448;6.650;2023-01-30T15:26:40;21.73;;;4.93;;
22024;SDS011;11176;51.448;6.650;2023-01-30T15:29:26;18.75;;;4.45;;
22024;SDS011;11176;51.448;6.650;2023-01-30T15:32:00;16.35;;;4.38;;
22024;SDS011;11176;51.448;6.650;2023-01-30T15:34:46;25.88;;;4.97;;
22024;SDS011;11176;51.448;6.650;2023-01-30T15:37:31;19.50;;;4.18;;
22024;SDS011;11176;51.448;6.650;2023-01-30T15:42:51;18.63;;;4.07;;
22024;SDS011;11176;51.448;6.650;2023-01-30T15:45:23;22.25;;;4.85;;
22024;SDS011;11176;51.448;6.650;2023-01-30T15:50:48;25.63;;;4.32;;
22024;SDS011;11176;51.448;6.650;2023-01-30T15:53:22;18.05;;;3.60;;
22024;SDS011;11176;51.448;6.650;2023-01-30T15:55:52;17.45;;;4.78;;
22024;SDS011;11176;51.448;6.650;2023-01-30T15:58:20;17.30;;;4.43;;
22024;SDS011;11176;51.448;6.650;2023-01-30T16:00:48;18.63;;;4.00;;
22024;SDS011;11176;51.448;6.650;2023-01-30T16:03:22;21.65;;;4.80;;
22024;SDS011;11176;51.448;6.650;2023-01-30T16:05:52;21.00;;;4.07;;
22024;SDS011;11176;51.448;6.650;2023-01-30T16:08:24;20.67;;;3.97;;
22024;SDS011;11176;51.448;6.650;2023-01-30T16:10:52;29.15;;;4.82;;
22024;SDS011;11176;51.448;6.650;2023-01-30T16:13:19;22.10;;;4.55;;
22024;SDS011;11176;51.448;6.650;2023-01-30T16:21:01;25.65;;;4.40;;
22024;SDS011;11176;51.448;6.650;2023-01-30T16:23:34;22.75;;;5.95;;
22024;SDS011;11176;51.448;6.650;2023-01-30T16:26:04;25.67;;;6.55;;
22024;SDS011;11176;51.448;6.650;2023-01-30T16:28:34;26.27;;;5.70;;
22024;SDS011;11176;51.448;6.650;2023-01-30T16:31:05;22.85;;;5.32;;
22024;SDS011;11176;51.448;6.650;2023-01-30T16:33:34;23.25;;;4.28;;
22024;SDS011;11176;51.448;6.650;2023-01-30T16:36:06;25.33;;;5.07;;
22024;SDS011;11176;51.448;6.650;2023-01-30T16:38:52;17.90;;;4.28;;
22024;SDS011;11176;51.448;6.650;2023-01-30T16:41:29;22.33;;;5.28;;
22024;SDS011;11176;51.448;6.650;2023-01-30T16:44:18;25.08;;;4.35;;
22024;SDS011;11176;51.448;6.650;2023-01-30T16:47:02;21.95;;;4.47;;
22024;SDS011;11176;51.448;6.650;2023-01-30T16:52:04;30.57;;;6.00;;
22024;SDS011;11176;51.448;6.650;2023-01-30T16:54:34;37.38;;;6.68;;
22024;SDS011;11176;51.448;6.650;2023-01-30T16:57:02;28.98;;;6.20;;
22024;SDS011;11176;51.448;6.650;2023-01-30T16:59:29;22.15;;;5.25;;
22024;SDS011;11176;51.448;6.650;2023-01-30T17:01:59;23.63;;;5.22;;
22024;SDS011;11176;51.448;6.650;2023-01-30T17:04:30;22.98;;;5.28;;
22024;SDS011;11176;51.448;6.650;2023-01-30T17:06:59;25.40;;;4.82;;
22024;SDS011;11176;51.448;6.650;2023-01-30T17:09:32;25.70;;;5.45;;
22024;SDS011;11176;51.448;6.650;2023-01-30T17:12:30;25.38;;;5.30;;
22024;SDS011;11176;51.448;6.650;2023-01-30T17:15:23;30.02;;;5.47;;
22024;SDS011;11176;51.448;6.650;2023-01-30T17:17:37;23.00;;;5.88;;
22024;SDS011;11176;51.448;6.650;2023-01-30T17:20:04;30.13;;;6.95;;
22024;SDS011;11176;51.448;6.650;2023-01-30T17:22:32;20.25;;;5.55;;
22024;SDS011;11176;51.448;6.650;2023-01-30T17:25:03;22.92;;;5.72;;
22024;SDS011;11176;51.448;6.650;2023-01-30T17:27:31;21.38;;;5.53;;
22024;SDS011;11176;51.448;6.650;2023-01-30T17:29:58;25.35;;;4.78;;
22024;SDS011;11176;51.448;6.650;2023-01-30T17:32:25;22.58;;;5.78;;
22024;SDS011;11176;51.448;6.650;2023-01-30T17:34:52;25.17;;;5.60;;
22024;SDS011;11176;51.448;6.650;2023-01-30T17:37:19;20.38;;;5.53;;
22024;SDS011;11176;51.448;6.650;2023-01-30T17:39:46;21.65;;;5.55;;
22024;SDS011;11176;51.448;6.650;2023-01-30T17:42:14;21.52;;;5.07;;
22024;SDS011;11176;51.448;6.650;2023-01-30T17:44:43;25.30;;;4.72;;